createdAt,value
2023-02-11T00:02:09.923Z,1.35
2023-02-11T00:04:36.481Z,1.33
2023-02-11T00:07:03.008Z,1.60
2023-02-11T00:09:31.814Z,1.07
2023-02-11T00:11:58.708Z,1.38
2023-02-11T00:14:25.208Z,1.27
2023-02-11T00:16:52.363Z,1.10
2023-02-11T00:19:19.025Z,1.25
2023-02-11T00:21:45.499Z,2.17
2023-02-11T00:24:11.973Z,1.25
2023-02-11T00:26:38.762Z,1.10
2023-02-11T00:29:05.824Z,1.58
2023-02-11T00:31:32.908Z,1.10
2023-02-11T00:33:59.661Z,1.80
2023-02-11T00:36:29.355Z,1.02
2023-02-11T00:38:57.402Z,1.40
2023-02-11T00:41:25.007Z,1.65
2023-02-11T00:43:51.923Z,1.05
2023-02-11T00:46:21.954Z,1.20
2023-02-11T00:48:49.107Z,1.15
2023-02-11T00:51:15.669Z,0.85
2023-02-11T00:53:42.439Z,0.90
2023-02-11T00:56:09.552Z,2.00
2023-02-11T00:58:36.731Z,1.67
2023-02-11T01:01:03.867Z,1.33
2023-02-11T01:03:33.078Z,2.05
2023-02-11T01:05:59.637Z,1.73
2023-02-11T01:08:26.260Z,1.83
2023-02-11T01:11:01.837Z,1.67
2023-02-11T01:13:30.575Z,1.52
2023-02-11T01:15:57.681Z,1.23
2023-02-11T01:18:24.714Z,1.55
2023-02-11T01:20:52.379Z,1.15
2023-02-11T01:23:19.322Z,1.67
2023-02-11T01:25:46.073Z,2.13
2023-02-11T01:28:29.678Z,1.60
2023-02-11T01:30:56.677Z,1.88
2023-02-11T01:33:24.182Z,1.95
2023-02-11T01:35:51.346Z,1.50
2023-02-11T01:38:21.754Z,1.13
2023-02-11T01:40:54.760Z,1.25
2023-02-11T01:43:22.158Z,1.92
2023-02-11T01:45:57.868Z,1.40
2023-02-11T01:48:34.288Z,1.70
2023-02-11T01:51:09.912Z,1.85
2023-02-11T01:53:58.509Z,1.35
2023-02-11T01:56:48.854Z,2.38
2023-02-11T01:59:24.615Z,1.38
2023-02-11T02:01:59.027Z,1.30
2023-02-11T02:04:33.374Z,1.52
2023-02-11T02:07:06.524Z,1.52
2023-02-11T02:09:40.172Z,1.70
2023-02-11T02:12:06.712Z,1.20
2023-02-11T02:14:33.463Z,1.87
2023-02-11T02:17:00.288Z,1.38
2023-02-11T02:20:11.387Z,1.75
2023-02-11T02:22:43.715Z,2.30
2023-02-11T02:25:28.644Z,0.93
2023-02-11T02:28:18.695Z,1.83
2023-02-11T02:31:26.042Z,1.75
2023-02-11T02:34:24.378Z,2.65
2023-02-11T02:37:21.617Z,2.13
2023-02-11T02:39:50.325Z,0.98
2023-02-11T02:42:18.710Z,1.67
2023-02-11T02:44:50.454Z,2.63
2023-02-11T02:47:17.114Z,1.27
2023-02-11T02:49:43.712Z,1.70
2023-02-11T02:52:20.842Z,1.77
2023-02-11T02:55:05.354Z,1.70
2023-02-11T02:57:49.827Z,1.27
2023-02-11T03:00:36.276Z,2.10
2023-02-11T03:03:26.479Z,1.70
2023-02-11T03:06:04.548Z,2.38
2023-02-11T03:08:59.734Z,2.40
2023-02-11T03:11:29.308Z,1.98
2023-02-11T03:13:57.417Z,1.75
2023-02-11T03:16:27.247Z,1.75
2023-02-11T03:19:01.579Z,2.40
2023-02-11T03:21:30.973Z,2.13
2023-02-11T03:24:03.085Z,1.98
2023-02-11T03:26:53.044Z,2.00
2023-02-11T03:29:36.324Z,2.00
2023-02-11T03:32:16.029Z,2.40
2023-02-11T03:35:08.003Z,2.97
2023-02-11T03:37:55.649Z,3.30
2023-02-11T03:40:26.174Z,2.58
2023-02-11T03:43:30.981Z,2.17
2023-02-11T03:45:59.093Z,1.80
2023-02-11T03:48:33.542Z,2.87
2023-02-11T03:51:03.248Z,3.92
2023-02-11T03:53:30.287Z,3.83
2023-02-11T03:56:00.271Z,3.20
2023-02-11T03:58:27.086Z,3.25
2023-02-11T04:00:53.882Z,3.27
2023-02-11T04:03:20.438Z,3.60
2023-02-11T04:05:47.346Z,3.45
2023-02-11T04:08:13.937Z,3.78
2023-02-11T04:10:40.632Z,3.85
2023-02-11T04:13:07.164Z,3.10
2023-02-11T04:15:33.652Z,2.72
2023-02-11T04:18:00.155Z,4.30
2023-02-11T04:20:26.847Z,3.72
2023-02-11T04:22:53.278Z,4.43
2023-02-11T04:25:19.924Z,4.60
2023-02-11T04:27:46.426Z,4.45
2023-02-11T04:30:13.480Z,3.88
2023-02-11T04:32:39.961Z,4.15
2023-02-11T04:35:06.983Z,4.68
2023-02-11T04:37:33.578Z,4.87
2023-02-11T04:40:00.128Z,5.05
2023-02-11T04:42:26.658Z,4.50
2023-02-11T04:44:53.102Z,4.50
2023-02-11T04:47:19.816Z,4.55
2023-02-11T04:49:46.557Z,4.87
2023-02-11T04:52:12.985Z,5.45
2023-02-11T04:54:48.484Z,6.05
2023-02-11T04:57:15.018Z,5.32
2023-02-11T04:59:41.999Z,5.53
2023-02-11T05:02:09.517Z,5.73
2023-02-11T05:04:36.035Z,6.20
2023-02-11T05:07:02.825Z,6.00
2023-02-11T05:09:29.534Z,6.22
2023-02-11T05:11:56.099Z,7.28
2023-02-11T05:14:25.679Z,6.70
2023-02-11T05:16:52.249Z,6.05
2023-02-11T05:19:21.997Z,6.47
2023-02-11T05:22:01.833Z,6.70
2023-02-11T05:24:29.846Z,6.32
2023-02-11T05:26:56.542Z,5.93
2023-02-11T05:29:23.288Z,6.57
2023-02-11T05:31:49.964Z,6.20
2023-02-11T05:34:16.599Z,6.95
2023-02-11T05:36:43.055Z,7.13
2023-02-11T05:39:09.699Z,6.07
2023-02-11T05:41:36.336Z,6.53
2023-02-11T05:44:02.960Z,7.00
2023-02-11T05:46:29.540Z,8.63
2023-02-11T05:48:56.929Z,7.57
2023-02-11T05:51:25.232Z,5.87
2023-02-11T05:53:51.767Z,6.47
2023-02-11T05:56:18.223Z,7.10
2023-02-11T05:58:44.589Z,7.07
2023-02-11T06:01:11.352Z,6.93
2023-02-11T06:03:38.126Z,6.33
2023-02-11T06:06:05.036Z,6.90
2023-02-11T06:08:31.493Z,7.40
2023-02-11T06:10:57.970Z,7.68
2023-02-11T06:13:24.427Z,7.93
2023-02-11T06:15:58.736Z,7.80
2023-02-11T06:18:25.740Z,8.48
2023-02-11T06:20:52.920Z,7.50
2023-02-11T06:23:19.826Z,7.72
2023-02-11T06:25:47.041Z,8.13
2023-02-11T06:28:13.847Z,8.03
2023-02-11T06:30:40.908Z,8.23
2023-02-11T06:33:07.382Z,8.20
2023-02-11T06:35:35.536Z,7.78
2023-02-11T06:38:02.165Z,8.68
2023-02-11T06:40:28.670Z,7.93
2023-02-11T06:42:55.267Z,8.70
2023-02-11T06:45:21.718Z,8.10
2023-02-11T06:47:48.155Z,8.23
2023-02-11T06:50:15.191Z,8.20
2023-02-11T06:52:41.783Z,8.00
2023-02-11T06:55:08.756Z,7.78
2023-02-11T06:57:35.894Z,8.35
2023-02-11T07:00:02.887Z,8.10
2023-02-11T07:02:29.644Z,8.60
2023-02-11T07:04:58.391Z,9.00
2023-02-11T07:07:25.108Z,8.80
2023-02-11T07:09:51.596Z,9.85
2023-02-11T07:12:18.316Z,8.68
2023-02-11T07:14:44.759Z,9.45
2023-02-11T07:17:11.131Z,9.03
2023-02-11T07:19:38.164Z,7.68
2023-02-11T07:22:04.638Z,9.57
2023-02-11T07:24:31.388Z,9.02
2023-02-11T07:27:24.167Z,10.02
2023-02-11T07:29:53.694Z,9.33
2023-02-11T07:32:27.977Z,9.10
2023-02-11T07:34:54.534Z,9.52
2023-02-11T07:37:21.871Z,10.27
2023-02-11T07:39:50.962Z,9.73
2023-02-11T07:42:17.689Z,9.60
2023-02-11T07:45:40.891Z,10.68
2023-02-11T07:47:42.808Z,9.35
2023-02-11T07:50:10.663Z,10.73
2023-02-11T07:52:37.481Z,10.32
2023-02-11T07:55:07.119Z,8.73
2023-02-11T07:57:33.657Z,9.73
2023-02-11T08:00:02.405Z,9.95
2023-02-11T08:02:31.152Z,11.13
2023-02-11T08:05:00.713Z,9.85
2023-02-11T08:07:29.600Z,9.57
2023-02-11T08:09:57.630Z,9.60
2023-02-11T08:12:28.837Z,10.55
2023-02-11T08:14:58.813Z,10.55
2023-02-11T08:17:26.492Z,9.98
2023-02-11T08:19:53.934Z,10.13
2023-02-11T08:25:31.170Z,10.10
2023-02-11T08:28:05.173Z,11.30
2023-02-11T08:30:32.967Z,11.02
2023-02-11T08:33:15.165Z,11.30
2023-02-11T08:35:55.043Z,12.10
2023-02-11T08:38:45.761Z,10.63
2023-02-11T08:41:45.775Z,9.35
2023-02-11T08:48:51.361Z,10.20
2023-02-11T08:51:42.941Z,10.57
2023-02-11T08:54:11.422Z,10.68
2023-02-11T08:56:38.845Z,10.48
2023-02-11T08:59:07.318Z,9.77
2023-02-11T09:01:34.342Z,10.30
2023-02-11T09:04:02.263Z,11.38
2023-02-11T09:06:29.471Z,9.85
2023-02-11T09:09:00.134Z,9.10
2023-02-11T09:11:32.984Z,10.18
2023-02-11T09:14:01.083Z,10.23
2023-02-11T09:16:32.253Z,9.73
2023-02-11T09:19:00.671Z,9.82
2023-02-11T09:21:29.245Z,10.43
2023-02-11T09:23:56.273Z,10.13
2023-02-11T09:26:29.212Z,9.50
2023-02-11T09:29:00.380Z,9.15
2023-02-11T09:31:29.595Z,10.25
2023-02-11T09:34:00.504Z,11.00
2023-02-11T09:36:30.000Z,9.75
2023-02-11T09:39:00.740Z,9.03
2023-02-11T09:41:47.133Z,9.18
2023-02-11T09:44:29.852Z,9.80
2023-02-11T09:46:59.922Z,9.80
2023-02-11T09:49:53.813Z,9.65
2023-02-11T09:52:46.927Z,8.93
2023-02-11T09:55:55.999Z,9.10
2023-02-11T09:58:36.852Z,9.10
2023-02-11T10:01:22.130Z,8.52
2023-02-11T10:03:48.637Z,9.07
2023-02-11T10:06:31.245Z,8.43
2023-02-11T10:09:22.051Z,8.23
2023-02-11T10:12:26.099Z,8.43
2023-02-11T10:15:16.160Z,7.43
2023-02-11T10:17:51.822Z,7.85
2023-02-11T10:20:55.514Z,8.63
2023-02-11T10:23:29.851Z,7.75
2023-02-11T10:25:59.045Z,7.30
2023-02-11T10:28:34.732Z,7.63
2023-02-11T10:31:09.819Z,7.07
2023-02-11T10:33:45.461Z,7.07
2023-02-11T10:36:13.544Z,7.68
2023-02-11T10:38:40.743Z,7.10
2023-02-11T10:41:13.899Z,7.65
2023-02-11T10:43:42.694Z,6.70
2023-02-11T10:46:18.604Z,6.43
2023-02-11T10:48:51.592Z,7.07
2023-02-11T10:51:28.450Z,6.50
2023-02-11T10:54:03.826Z,5.50
2023-02-11T10:56:34.373Z,6.10
2023-02-11T10:59:04.842Z,6.10
2023-02-11T11:01:56.347Z,6.68
2023-02-11T11:04:40.428Z,7.20
2023-02-11T11:07:12.141Z,5.97
2023-02-11T11:09:59.212Z,6.35
2023-02-11T11:12:27.931Z,7.10
2023-02-11T11:14:58.786Z,5.82
2023-02-11T11:17:30.349Z,7.25
2023-02-11T11:20:23.140Z,6.30
2023-02-11T11:22:52.603Z,5.97
2023-02-11T11:25:25.124Z,5.93
2023-02-11T11:27:54.180Z,5.22
2023-02-11T11:30:21.015Z,5.63
2023-02-11T11:32:47.609Z,5.32
2023-02-11T11:35:25.295Z,5.32
2023-02-11T11:38:04.049Z,5.43
2023-02-11T11:40:33.176Z,5.65
2023-02-11T11:43:22.651Z,5.22
2023-02-11T11:45:57.727Z,5.45
2023-02-11T11:51:35.018Z,4.77
2023-02-11T11:54:06.556Z,4.30
2023-02-11T11:56:37.984Z,4.20
2023-02-11T11:59:14.000Z,3.60
2023-02-11T12:02:02.428Z,4.82
2023-02-11T12:04:42.786Z,4.40
2023-02-11T12:07:40.278Z,4.68
2023-02-11T12:10:31.819Z,3.88
2023-02-11T12:13:28.572Z,3.70
2023-02-11T12:16:33.729Z,3.40
2023-02-11T12:19:34.478Z,3.23
2023-02-11T12:22:36.634Z,3.40
2023-02-11T12:25:25.222Z,3.17
2023-02-11T12:28:04.118Z,2.58
2023-02-11T12:31:01.181Z,2.70
2023-02-11T12:33:55.563Z,2.83
2023-02-11T12:36:42.765Z,2.70
2023-02-11T12:39:32.221Z,2.72
2023-02-11T12:42:32.621Z,2.80
2023-02-11T12:45:11.344Z,2.78
2023-02-11T12:47:56.059Z,2.77
2023-02-11T12:50:45.713Z,2.80
2023-02-11T12:53:32.285Z,3.47
2023-02-11T12:56:05.472Z,2.63
2023-02-11T12:58:45.081Z,2.70
2023-02-11T13:01:39.770Z,2.60
2023-02-11T13:04:13.660Z,3.13
2023-02-11T13:06:54.886Z,2.50
2023-02-11T13:09:35.657Z,2.83
2023-02-11T13:12:22.585Z,2.60
2023-02-11T13:14:52.179Z,2.60
2023-02-11T13:17:36.732Z,1.88
2023-02-11T13:20:18.085Z,2.28
2023-02-11T13:22:57.235Z,2.40
2023-02-11T13:25:40.761Z,2.20
2023-02-11T13:28:27.571Z,2.67
2023-02-11T13:31:02.600Z,2.08
2023-02-11T13:33:36.463Z,2.88
2023-02-11T13:36:04.752Z,2.08
2023-02-11T13:38:32.633Z,2.53
2023-02-11T13:41:41.319Z,2.40
2023-02-11T13:44:10.561Z,2.60
2023-02-11T13:46:55.684Z,2.67
2023-02-11T13:49:42.232Z,2.88
2023-02-11T13:52:18.651Z,2.92
2023-02-11T13:54:51.066Z,2.67
2023-02-11T13:57:20.747Z,2.70
2023-02-11T14:00:30.447Z,2.33
2023-02-11T14:03:30.756Z,2.70
2023-02-11T14:06:27.829Z,2.55
2023-02-11T14:09:09.530Z,2.53
2023-02-11T14:12:29.943Z,2.10
2023-02-11T14:15:07.870Z,3.05
2023-02-11T14:17:34.826Z,2.40
2023-02-11T14:20:04.593Z,2.38
2023-02-11T14:22:43.043Z,2.80
2023-02-11T14:25:21.828Z,2.80
2023-02-11T14:27:56.696Z,2.67
2023-02-11T14:30:35.564Z,2.58
2023-02-11T14:33:20.322Z,2.38
2023-02-11T14:36:10.157Z,3.07
2023-02-11T14:38:58.436Z,2.85
2023-02-11T14:41:39.898Z,2.90
2023-02-11T14:44:19.356Z,2.97
2023-02-11T14:46:48.703Z,2.90
2023-02-11T14:49:29.117Z,2.88
2023-02-11T14:52:03.879Z,2.47
2023-02-11T14:54:31.257Z,2.05
2023-02-11T14:57:30.677Z,2.38
2023-02-11T15:00:03.215Z,2.25
2023-02-11T15:02:34.007Z,2.60
2023-02-11T15:05:22.637Z,2.58
2023-02-11T15:07:55.699Z,2.45
2023-02-11T15:10:41.439Z,2.20
2023-02-11T15:13:09.058Z,2.53
2023-02-11T15:15:40.557Z,2.67
2023-02-11T15:18:09.508Z,2.88
2023-02-11T15:20:36.061Z,2.38
2023-02-11T15:23:07.200Z,2.60
2023-02-11T15:25:34.437Z,2.33
2023-02-11T15:28:01.045Z,2.60
2023-02-11T15:30:34.002Z,2.00
2023-02-11T15:33:03.317Z,2.22
2023-02-11T15:35:39.712Z,2.30
2023-02-11T15:38:07.467Z,2.35
2023-02-11T15:40:36.886Z,1.77
2023-02-11T15:43:06.992Z,2.38
2023-02-11T15:45:36.913Z,3.28
2023-02-11T15:48:20.121Z,2.20
2023-02-11T15:50:55.552Z,2.28
2023-02-11T15:53:27.533Z,1.93
2023-02-11T15:56:17.999Z,2.60
2023-02-11T15:58:47.777Z,2.78
2023-02-11T16:01:14.636Z,2.88
2023-02-11T16:03:43.283Z,2.17
2023-02-11T16:06:35.013Z,3.73
2023-02-11T16:09:10.999Z,2.60
2023-02-11T16:11:54.847Z,2.63
2023-02-11T16:14:27.765Z,2.42
2023-02-11T16:16:57.845Z,2.13
2023-02-11T16:19:26.495Z,2.23
2023-02-11T16:21:55.203Z,2.60
2023-02-11T16:24:33.781Z,2.83
2023-02-11T16:27:02.577Z,2.60
2023-02-11T16:29:35.234Z,2.03
2023-02-11T16:32:26.771Z,2.53
2023-02-11T16:34:55.364Z,2.42
2023-02-11T16:37:21.826Z,2.28
2023-02-11T16:39:48.255Z,2.55
2023-02-11T16:42:15.736Z,2.28
2023-02-11T16:44:42.141Z,2.35
2023-02-11T16:47:23.917Z,1.50
2023-02-11T16:49:50.696Z,1.77
2023-02-11T16:52:18.212Z,2.00
2023-02-11T16:54:44.797Z,2.28
2023-02-11T16:57:16.079Z,2.47
2023-02-11T16:59:43.357Z,2.17
2023-02-11T17:02:18.477Z,2.85
2023-02-11T17:04:45.464Z,2.25
2023-02-11T17:07:12.569Z,2.58
2023-02-11T17:09:39.183Z,3.17
2023-02-11T17:12:06.307Z,1.95
2023-02-11T17:14:32.741Z,2.70
2023-02-11T17:16:59.164Z,2.95
2023-02-11T17:19:25.582Z,2.95
2023-02-11T17:21:53.084Z,2.60
2023-02-11T17:24:21.579Z,2.88
2023-02-11T17:26:49.599Z,2.75
2023-02-11T17:29:18.907Z,3.35
2023-02-11T17:31:45.490Z,2.83
2023-02-11T17:34:12.358Z,2.10
2023-02-11T17:36:41.204Z,2.70
2023-02-11T17:39:08.458Z,2.53
2023-02-11T17:41:38.244Z,3.00
2023-02-11T17:44:05.892Z,2.50
2023-02-11T17:46:34.303Z,3.33
2023-02-11T17:49:01.965Z,2.67
2023-02-11T17:51:36.929Z,2.95
2023-02-11T17:54:06.589Z,2.70
2023-02-11T17:56:35.671Z,2.80
2023-02-11T17:59:02.904Z,2.67
2023-02-11T18:01:31.477Z,2.67
2023-02-11T18:03:58.090Z,2.75
2023-02-11T18:06:24.802Z,3.05
2023-02-11T18:08:51.652Z,3.38
2023-02-11T18:11:18.724Z,3.63
2023-02-11T18:13:45.489Z,2.90
2023-02-11T18:16:15.572Z,3.70
2023-02-11T18:18:43.531Z,3.22
2023-02-11T18:21:18.823Z,3.13
2023-02-11T18:23:46.293Z,4.00
2023-02-11T18:26:14.479Z,3.28
2023-02-11T18:28:43.896Z,3.80
2023-02-11T18:31:12.357Z,3.40
2023-02-11T18:33:40.110Z,4.32
2023-02-11T18:36:11.892Z,3.93
2023-02-11T18:38:39.229Z,3.88
2023-02-11T18:41:07.136Z,4.20
2023-02-11T18:43:34.403Z,3.55
2023-02-11T18:46:06.228Z,3.42
2023-02-11T18:48:32.984Z,3.20
2023-02-11T18:51:00.212Z,3.90
2023-02-11T18:53:26.777Z,4.03
2023-02-11T18:55:54.117Z,3.63
2023-02-11T18:58:23.724Z,3.95
2023-02-11T19:00:50.562Z,3.73
2023-02-11T19:03:17.088Z,3.92
2023-02-11T19:05:47.284Z,3.30
2023-02-11T19:08:14.487Z,4.47
2023-02-11T19:10:47.832Z,3.50
2023-02-11T19:13:14.751Z,3.83
2023-02-11T19:15:42.751Z,4.05
2023-02-11T19:18:09.851Z,3.20
2023-02-11T19:20:39.503Z,3.60
2023-02-11T19:23:05.985Z,3.53
2023-02-11T19:25:32.879Z,4.00
2023-02-11T19:28:00.284Z,3.97
2023-02-11T19:30:27.524Z,4.05
2023-02-11T19:32:56.986Z,3.53
2023-02-11T19:35:24.287Z,4.20
2023-02-11T19:37:50.783Z,3.23
2023-02-11T19:40:17.579Z,4.03
2023-02-11T19:42:44.946Z,3.45
2023-02-11T19:45:11.451Z,3.28
2023-02-11T19:47:38.026Z,4.55
2023-02-11T19:50:05.651Z,4.30
2023-02-11T19:52:32.148Z,3.92
2023-02-11T19:54:59.274Z,3.42
2023-02-11T19:57:25.933Z,3.55
2023-02-11T19:59:54.748Z,3.45
2023-02-11T20:02:21.290Z,4.10
2023-02-11T20:04:48.449Z,3.92
2023-02-11T20:07:15.050Z,3.63
2023-02-11T20:09:42.503Z,4.72
2023-02-11T20:12:09.290Z,4.07
2023-02-11T20:14:35.753Z,3.40
2023-02-11T20:17:02.477Z,4.53
2023-02-11T20:19:30.524Z,4.28
2023-02-11T20:21:57.114Z,4.22
2023-02-11T20:24:24.510Z,4.32
2023-02-11T20:26:55.178Z,4.60
2023-02-11T20:29:22.344Z,4.13
2023-02-11T20:31:50.219Z,5.20
2023-02-11T20:34:17.898Z,4.65
2023-02-11T20:36:51.420Z,5.68
2023-02-11T20:39:19.128Z,4.50
2023-02-11T20:41:46.124Z,4.90
2023-02-11T20:44:12.936Z,3.90
2023-02-11T20:46:43.510Z,4.45
2023-02-11T20:49:12.451Z,4.70
2023-02-11T20:51:39.332Z,3.55
2023-02-11T20:54:06.360Z,4.28
2023-02-11T20:56:36.658Z,4.68
2023-02-11T20:59:04.386Z,4.97
2023-02-11T21:01:43.603Z,4.70
2023-02-11T21:04:16.159Z,5.50
2023-02-11T21:06:45.809Z,4.88
2023-02-11T21:09:15.816Z,4.95
2023-02-11T21:11:43.048Z,4.55
2023-02-11T21:14:10.268Z,4.95
2023-02-11T21:16:37.128Z,5.00
2023-02-11T21:19:03.973Z,4.60
2023-02-11T21:21:30.734Z,5.10
2023-02-11T21:23:58.408Z,4.07
2023-02-11T21:26:24.991Z,4.40
2023-02-11T21:28:52.132Z,4.57
2023-02-11T21:31:24.938Z,4.30
2023-02-11T21:33:53.021Z,3.97
2023-02-11T21:36:20.253Z,4.50
2023-02-11T21:38:47.040Z,4.50
2023-02-11T21:41:13.540Z,3.63
2023-02-11T21:43:40.042Z,4.47
2023-02-11T21:46:09.001Z,4.85
2023-02-11T21:48:51.316Z,4.53
2023-02-11T21:51:21.131Z,4.85
2023-02-11T21:53:47.909Z,4.60
2023-02-11T21:56:17.211Z,4.88
2023-02-11T21:58:45.080Z,4.35
2023-02-11T22:01:17.791Z,4.25
2023-02-11T22:03:45.589Z,4.68
2023-02-11T22:06:14.840Z,4.80
2023-02-11T22:08:41.748Z,4.70
2023-02-11T22:11:11.108Z,5.07
2023-02-11T22:13:37.711Z,5.00
2023-02-11T22:16:07.404Z,5.57
2023-02-11T22:18:33.952Z,5.53
2023-02-11T22:21:02.699Z,4.97
2023-02-11T22:23:29.976Z,4.47
2023-02-11T22:25:57.339Z,5.55
2023-02-11T22:28:25.909Z,5.32
2023-02-11T22:30:54.252Z,5.87
2023-02-11T22:33:21.027Z,5.00
2023-02-11T22:35:47.438Z,5.45
2023-02-11T22:38:13.785Z,5.82
2023-02-11T22:40:43.964Z,5.50
2023-02-11T22:43:10.456Z,6.13
2023-02-11T22:45:36.904Z,5.80
2023-02-11T22:48:03.589Z,6.95
2023-02-11T22:50:30.210Z,5.43
2023-02-11T22:52:56.747Z,6.43
2023-02-11T22:55:23.223Z,6.20
2023-02-11T22:57:49.608Z,6.10
2023-02-11T23:00:17.132Z,5.97
2023-02-11T23:02:43.656Z,5.85
2023-02-11T23:05:10.102Z,6.85
2023-02-11T23:07:36.569Z,5.97
2023-02-11T23:10:03.767Z,5.28
2023-02-11T23:12:30.250Z,6.18
2023-02-11T23:14:56.719Z,5.78
2023-02-11T23:17:24.508Z,6.22
2023-02-11T23:19:51.111Z,6.37
2023-02-11T23:22:17.540Z,5.45
2023-02-11T23:24:43.970Z,6.43
2023-02-11T23:27:10.396Z,6.75
2023-02-11T23:29:36.894Z,6.22
2023-02-11T23:32:03.462Z,6.23
2023-02-11T23:34:29.912Z,5.70
2023-02-11T23:36:57.635Z,6.47
2023-02-11T23:39:24.112Z,5.60
2023-02-11T23:41:52.650Z,5.97
2023-02-11T23:44:19.050Z,6.47
2023-02-11T23:46:46.210Z,5.95
2023-02-11T23:49:12.970Z,6.72
2023-02-11T23:51:39.434Z,6.65
2023-02-11T23:54:05.981Z,6.50
2023-02-11T23:56:32.484Z,6.73
2023-02-11T23:58:59.327Z,6.63
